Forestburg, New York
Current Conditions -  °F | °C
As of 7:15 AM on Tuesday 27 Jan 2015 (Local Time) from KMSV Reporting Station
Overcast Overcast  
Wind Chill:   Ceiling: 8000
Heat Index: 16°   Visibility: 10mi
Dew Point:   Wind: 15mph
Humidity: 68%   Direction: 320°NW
Pressure: 29.68"   Gusts: NA
Location:  41.5947°N, 74.7078°W
Report Text: KMSV 271215Z 32013KT 10SM OVC080 M09/M14 A2968 RMK AO1 4/002
Loading
Personal Weather Stations






























Interactive Weather Map New forecast layout! Learn more

10-Day Weather Forecast

Advertisements
Track Severe Weather on mobile